Time;durP1;ratioP1;P1;durP2;ratioP2;P2;SDS_P1;SDS_P2;PMS_P1;PMS_P2;Temp;Humidity;BMP_temperature;BMP_pressure;BME280_temperature;BME280_humidity;BME280_pressure;Samples;Min_cycle;Max_cycle;Signal;HPM_P1;HPM_P2
2023/09/16 00:00:48;;;;;;;;;;;14.90;99.90;;;;;;4996680;28;19921;-43
2023/09/16 00:03:14;;;;;;;;;;;14.90;99.90;;;;;;4997008;28;19928;-43
2023/09/16 00:05:39;;;;;;;;;;;14.80;99.90;;;;;;4996813;28;20033;-43
2023/09/16 00:08:05;;;;;;;;;;;14.80;99.90;;;;;;4996862;28;19929;-43
2023/09/16 00:10:31;;;;;;;;;;;14.80;99.90;;;;;;4996844;28;19922;-43
2023/09/16 00:12:57;;;;;;;;;;;14.70;99.90;;;;;;4996736;28;19973;-44
2023/09/16 00:15:22;;;;;;;;;;;14.80;99.90;;;;;;5011660;28;20322;-43
2023/09/16 00:17:48;;;;;;;;;;;14.70;99.90;;;;;;4996932;28;20367;-43
2023/09/16 00:20:15;;;;;;;;;;;14.70;99.90;;;;;;4996652;28;20374;-43
2023/09/16 00:22:42;;;;;;;;;;;14.70;99.90;;;;;;4979674;28;19969;-43
2023/09/16 00:25:08;;;;;;;;;;;14.70;99.90;;;;;;4996518;28;19921;-44
2023/09/16 00:27:34;;;;;;;;;;;14.70;99.90;;;;;;4996327;28;19960;-44
2023/09/16 00:30:00;;;;;;;;;;;14.70;99.90;;;;;;4996609;28;19976;-43
2023/09/16 00:32:28;;;;;;;;;;;14.70;99.90;;;;;;4996451;28;19922;-43
2023/09/16 00:34:53;;;;;;;;;;;14.70;99.90;;;;;;4996392;28;20016;-43
2023/09/16 00:37:19;;;;;;;;;;;14.60;99.90;;;;;;4996520;28;20162;-43
2023/09/16 00:39:44;;;;;;;;;;;14.60;99.90;;;;;;4996396;28;19928;-43
2023/09/16 00:42:10;;;;;;;;;;;14.60;99.90;;;;;;4996254;28;20276;-43
2023/09/16 00:44:36;;;;;;;;;;;14.60;99.90;;;;;;4978840;28;19960;-44
2023/09/16 00:47:02;;;;;;;;;;;14.60;99.90;;;;;;4978776;28;20015;-42
2023/09/16 00:49:30;;;;;;;;;;;14.60;99.90;;;;;;4979443;28;19937;-43
2023/09/16 00:51:56;;;;;;;;;;;14.60;99.90;;;;;;4978908;28;19921;-43
2023/09/16 00:54:22;;;;;;;;;;;14.50;99.90;;;;;;4995908;28;19922;-43
2023/09/16 00:56:48;;;;;;;;;;;14.50;99.90;;;;;;4995838;28;19928;-43
2023/09/16 00:59:13;;;;;;;;;;;14.40;99.90;;;;;;4995897;28;19996;-43
2023/09/16 01:01:40;;;;;;;;;;;14.40;99.90;;;;;;4995782;28;20017;-43
2023/09/16 01:04:07;;;;;;;;;;;14.30;99.90;;;;;;4995574;28;20359;-42
2023/09/16 01:06:32;;;;;;;;;;;14.30;99.90;;;;;;4978786;28;19928;-42
2023/09/16 01:08:58;;;;;;;;;;;14.30;99.90;;;;;;4978417;28;19922;-43
2023/09/16 01:11:24;;;;;;;;;;;14.20;99.90;;;;;;4994733;28;20389;-43
2023/09/16 01:13:50;;;;;;;;;;;14.20;99.90;;;;;;4994573;28;20012;-43
2023/09/16 01:16:34;;;;;;;;;;;14.20;99.90;;;;;;4995048;28;19922;-42
2023/09/16 01:19:05;;;;;;;;;;;14.10;99.90;;;;;;4994602;28;19981;-43
2023/09/16 01:21:31;;;;;;;;;;;14.10;99.90;;;;;;4994654;28;19921;-42
2023/09/16 01:24:16;;;;;;;;;;;14.10;99.90;;;;;;4994610;28;19922;-43
2023/09/16 01:26:42;;;;;;;;;;;14.10;99.90;;;;;;4994647;28;19922;-42
2023/09/16 01:29:08;;;;;;;;;;;14.10;99.90;;;;;;4994579;28;19921;-43
2023/09/16 01:31:33;;;;;;;;;;;14.10;99.90;;;;;;4994654;28;19991;-43
2023/09/16 01:34:00;;;;;;;;;;;14.10;99.90;;;;;;4994457;28;19925;-43
2023/09/16 01:36:26;;;;;;;;;;;14.00;99.90;;;;;;4994132;28;19972;-43
2023/09/16 01:38:55;;;;;;;;;;;14.00;99.90;;;;;;4994494;28;19922;-43
2023/09/16 01:41:21;;;;;;;;;;;14.00;99.90;;;;;;4994418;28;19921;-42
2023/09/16 01:43:46;;;;;;;;;;;14.00;99.90;;;;;;4977240;28;19925;-43
2023/09/16 01:46:12;;;;;;;;;;;14.00;99.90;;;;;;4994379;28;19944;-43
2023/09/16 01:48:38;;;;;;;;;;;13.90;99.90;;;;;;4994319;28;20034;-43
2023/09/16 01:51:03;;;;;;;;;;;13.90;99.90;;;;;;4994080;28;19926;-43
2023/09/16 01:53:29;;;;;;;;;;;13.80;99.90;;;;;;4994043;28;19977;-44
2023/09/16 01:55:55;;;;;;;;;;;13.80;99.90;;;;;;4994122;28;19925;-43
2023/09/16 01:58:20;;;;;;;;;;;13.80;99.90;;;;;;4994212;28;19929;-43
2023/09/16 02:00:46;;;;;;;;;;;13.90;99.90;;;;;;5009129;28;19922;-43
2023/09/16 02:03:12;;;;;;;;;;;13.80;99.90;;;;;;4994082;28;19928;-43
2023/09/16 02:05:37;;;;;;;;;;;13.80;99.90;;;;;;4993843;28;19921;-43
2023/09/16 02:08:03;;;;;;;;;;;13.80;99.90;;;;;;4994355;28;19976;-44
2023/09/16 02:10:29;;;;;;;;;;;13.80;99.90;;;;;;4994023;28;19921;-43
2023/09/16 02:12:54;;;;;;;;;;;13.80;99.90;;;;;;4956404;28;1096322;-43
2023/09/16 02:15:20;;;;;;;;;;;13.80;99.90;;;;;;4994741;28;19922;-43
2023/09/16 02:17:45;;;;;;;;;;;13.80;99.90;;;;;;4994551;28;19921;-43
2023/09/16 02:20:11;;;;;;;;;;;13.80;99.90;;;;;;4994584;28;19943;-42
2023/09/16 02:22:37;;;;;;;;;;;13.80;99.90;;;;;;4994214;28;19929;-42
2023/09/16 02:25:02;;;;;;;;;;;13.80;99.90;;;;;;4993811;28;20020;-43
2023/09/16 02:27:28;;;;;;;;;;;13.80;99.90;;;;;;4994514;28;20008;-43
2023/09/16 02:29:54;;;;;;;;;;;13.80;99.90;;;;;;4994444;28;20298;-43
2023/09/16 02:32:19;;;;;;;;;;;13.70;99.90;;;;;;4994453;28;20401;-43
2023/09/16 02:34:45;;;;;;;;;;;13.70;99.90;;;;;;4994234;28;19921;-42
2023/09/16 02:37:10;;;;;;;;;;;13.70;99.90;;;;;;4994434;28;19922;-43
2023/09/16 02:39:36;;;;;;;;;;;13.70;99.90;;;;;;4994490;28;19922;-43
2023/09/16 02:42:01;;;;;;;;;;;13.70;99.90;;;;;;4994932;28;19953;-42
2023/09/16 02:44:28;;;;;;;;;;;13.60;99.90;;;;;;4994699;28;19929;-42
2023/09/16 02:46:54;;;;;;;;;;;13.60;99.90;;;;;;4994413;28;19933;-42
2023/09/16 02:49:19;;;;;;;;;;;13.60;99.90;;;;;;4994287;28;19925;-43
2023/09/16 02:51:45;;;;;;;;;;;13.50;99.90;;;;;;4994200;28;19922;-42
2023/09/16 02:54:10;;;;;;;;;;;13.60;99.90;;;;;;4994288;28;20050;-43
2023/09/16 02:56:36;;;;;;;;;;;13.50;99.90;;;;;;4994395;28;20350;-42
2023/09/16 02:59:01;;;;;;;;;;;13.50;99.90;;;;;;4994515;28;19922;-43
2023/09/16 03:01:27;;;;;;;;;;;13.50;99.90;;;;;;4994193;28;19922;-43
2023/09/16 03:03:52;;;;;;;;;;;13.50;99.90;;;;;;4994131;28;19979;-42
2023/09/16 03:06:18;;;;;;;;;;;13.50;99.90;;;;;;4994026;28;19929;-43
2023/09/16 03:08:44;;;;;;;;;;;13.40;99.90;;;;;;4994851;28;19929;-42
2023/09/16 03:11:10;;;;;;;;;;;13.50;99.90;;;;;;4994330;28;19925;-43
2023/09/16 03:13:36;;;;;;;;;;;13.40;99.90;;;;;;4994585;28;20287;-43
2023/09/16 03:16:12;;;;;;;;;;;13.50;99.90;;;;;;4994283;28;19929;-42
2023/09/16 03:18:37;;;;;;;;;;;13.50;99.90;;;;;;4994158;28;19980;-44
2023/09/16 03:21:03;;;;;;;;;;;13.40;99.90;;;;;;4993877;28;19930;-42
2023/09/16 03:23:28;;;;;;;;;;;13.40;99.90;;;;;;4994111;28;19922;-43
2023/09/16 03:25:54;;;;;;;;;;;13.40;99.90;;;;;;4994034;28;20349;-43
2023/09/16 03:28:19;;;;;;;;;;;13.40;99.90;;;;;;4994015;28;19929;-43
2023/09/16 03:30:45;;;;;;;;;;;13.40;99.90;;;;;;4994194;28;19926;-42
2023/09/16 03:33:11;;;;;;;;;;;13.40;99.90;;;;;;4993900;28;20268;-43
2023/09/16 03:35:36;;;;;;;;;;;13.40;99.90;;;;;;4995217;28;19929;-43
2023/09/16 03:38:02;;;;;;;;;;;13.40;99.90;;;;;;4997281;28;19976;-42
2023/09/16 03:40:28;;;;;;;;;;;13.40;99.90;;;;;;4997429;28;19926;-42
2023/09/16 03:42:54;;;;;;;;;;;13.40;99.90;;;;;;4997403;28;19972;-43
2023/09/16 03:45:20;;;;;;;;;;;13.50;99.90;;;;;;4997188;28;20011;-43
2023/09/16 03:47:45;;;;;;;;;;;13.40;99.90;;;;;;4997299;28;20361;-43
2023/09/16 03:50:11;;;;;;;;;;;13.40;99.90;;;;;;4997039;28;19928;-43
2023/09/16 03:52:37;;;;;;;;;;;13.40;99.90;;;;;;4997327;28;19922;-44
2023/09/16 03:55:02;;;;;;;;;;;13.40;99.90;;;;;;5012251;28;20367;-43
2023/09/16 03:57:28;;;;;;;;;;;13.40;99.90;;;;;;4997312;28;20017;-43
2023/09/16 03:59:53;;;;;;;;;;;13.40;99.90;;;;;;4997116;28;20271;-42
2023/09/16 04:02:19;;;;;;;;;;;13.40;99.90;;;;;;4996899;28;19930;-43
2023/09/16 04:04:44;;;;;;;;;;;13.30;99.90;;;;;;4996966;28;20279;-42
2023/09/16 04:07:10;;;;;;;;;;;13.40;99.90;;;;;;4996983;28;19929;-43
2023/09/16 04:09:36;;;;;;;;;;;13.40;99.90;;;;;;5012446;28;19928;-43
2023/09/16 04:12:02;;;;;;;;;;;13.40;99.90;;;;;;4996830;28;19922;-43
2023/09/16 04:14:28;;;;;;;;;;;13.40;99.90;;;;;;4996577;28;19991;-43
2023/09/16 04:16:53;;;;;;;;;;;13.40;99.90;;;;;;4996743;28;19921;-44
2023/09/16 04:19:19;;;;;;;;;;;13.40;99.90;;;;;;4996498;28;20016;-42
2023/09/16 04:21:46;;;;;;;;;;;13.40;99.90;;;;;;4996965;28;19921;-42
2023/09/16 04:24:12;;;;;;;;;;;13.40;99.90;;;;;;4996790;28;19992;-42
2023/09/16 04:26:38;;;;;;;;;;;13.40;99.90;;;;;;4996549;28;20383;-42
2023/09/16 04:29:03;;;;;;;;;;;13.30;99.90;;;;;;4979359;28;19973;-42
2023/09/16 04:31:30;;;;;;;;;;;13.30;99.90;;;;;;4996642;28;19921;-42
2023/09/16 04:33:55;;;;;;;;;;;13.30;99.90;;;;;;4996172;28;19922;-42
2023/09/16 04:36:22;;;;;;;;;;;13.20;99.90;;;;;;4996680;28;19928;-42
2023/09/16 04:38:48;;;;;;;;;;;13.20;99.90;;;;;;4996292;28;19928;-42
2023/09/16 04:41:14;;;;;;;;;;;13.20;99.90;;;;;;4996275;28;20390;-42
2023/09/16 04:43:40;;;;;;;;;;;13.10;99.90;;;;;;4996220;28;19926;-43
2023/09/16 04:46:06;;;;;;;;;;;13.20;99.90;;;;;;4995720;28;19921;-43
2023/09/16 04:48:32;;;;;;;;;;;13.20;99.90;;;;;;4995558;28;19922;-43
2023/09/16 04:50:57;;;;;;;;;;;13.20;99.90;;;;;;4996495;28;20285;-42
2023/09/16 04:53:23;;;;;;;;;;;13.20;99.90;;;;;;4996183;28;19921;-43
2023/09/16 04:55:48;;;;;;;;;;;13.20;99.90;;;;;;4995925;28;20355;-44
2023/09/16 04:58:14;;;;;;;;;;;13.20;99.90;;;;;;4995963;28;19921;-42
2023/09/16 05:00:39;;;;;;;;;;;13.20;99.90;;;;;;4995750;28;19926;-42
2023/09/16 05:03:05;;;;;;;;;;;13.20;99.90;;;;;;5011052;28;19921;-42
2023/09/16 05:05:32;;;;;;;;;;;13.20;99.90;;;;;;4996075;28;19921;-43
2023/09/16 05:07:57;;;;;;;;;;;13.20;99.90;;;;;;4995856;28;19937;-44
2023/09/16 05:10:23;;;;;;;;;;;13.10;99.90;;;;;;4995650;28;19921;-43
2023/09/16 05:12:49;;;;;;;;;;;13.20;99.90;;;;;;4995811;28;20389;-42
2023/09/16 05:15:14;;;;;;;;;;;13.20;99.90;;;;;;4995448;28;20366;-42
2023/09/16 05:17:40;;;;;;;;;;;13.10;99.90;;;;;;4995472;28;19925;-42
2023/09/16 05:20:06;;;;;;;;;;;13.10;99.90;;;;;;4995567;28;19922;-43
2023/09/16 05:22:31;;;;;;;;;;;13.10;99.90;;;;;;4995318;28;19976;-44
2023/09/16 05:24:57;;;;;;;;;;;13.00;99.90;;;;;;4978270;28;20012;-42
2023/09/16 05:27:22;;;;;;;;;;;13.00;99.90;;;;;;4995249;28;19928;-42
2023/09/16 05:29:51;;;;;;;;;;;13.00;99.90;;;;;;4995346;28;19977;-43
2023/09/16 05:32:17;;;;;;;;;;;13.00;99.90;;;;;;4995294;28;19925;-42
2023/09/16 05:34:42;;;;;;;;;;;13.00;99.90;;;;;;4995222;28;20425;-42
2023/09/16 05:37:08;;;;;;;;;;;13.00;99.90;;;;;;4995755;28;19922;-42
2023/09/16 05:39:34;;;;;;;;;;;13.00;99.90;;;;;;4995473;28;20008;-42
2023/09/16 05:41:59;;;;;;;;;;;12.90;99.90;;;;;;4995150;28;19928;-42
2023/09/16 05:44:25;;;;;;;;;;;13.00;99.90;;;;;;4994994;28;19922;-43
2023/09/16 05:46:50;;;;;;;;;;;13.00;99.90;;;;;;4995044;28;20008;-42
2023/09/16 05:49:16;;;;;;;;;;;13.00;99.90;;;;;;4994789;28;19929;-42
2023/09/16 05:51:42;;;;;;;;;;;13.00;99.90;;;;;;4994884;28;19921;-42
2023/09/16 05:54:08;;;;;;;;;;;13.00;99.90;;;;;;4994964;28;19922;-42
2023/09/16 05:56:37;;;;;;;;;;;13.10;99.90;;;;;;5010427;28;19929;-42
2023/09/16 05:59:03;;;;;;;;;;;13.10;99.90;;;;;;4994702;28;19976;-42
2023/09/16 06:01:28;;;;;;;;;;;13.10;99.90;;;;;;4994864;28;19922;-42
2023/09/16 06:03:54;;;;;;;;;;;13.10;99.90;;;;;;4995137;28;20334;-42
2023/09/16 06:06:20;;;;;;;;;;;13.10;99.90;;;;;;4994817;28;20330;-42
2023/09/16 06:08:45;;;;;;;;;;;13.10;99.90;;;;;;4994680;28;19968;-42
2023/09/16 06:11:12;;;;;;;;;;;13.10;99.90;;;;;;4994577;28;19975;-42
2023/09/16 06:13:38;;;;;;;;;;;13.10;99.90;;;;;;4994582;28;19922;-42
2023/09/16 06:16:03;;;;;;;;;;;13.10;99.90;;;;;;4994400;28;19984;-43
2023/09/16 06:18:29;;;;;;;;;;;13.20;99.90;;;;;;4994716;28;19929;-42
2023/09/16 06:20:55;;;;;;;;;;;13.20;99.90;;;;;;4994678;28;20302;-43
2023/09/16 06:23:20;;;;;;;;;;;13.30;99.90;;;;;;4994665;28;19976;-43
2023/09/16 06:25:46;;;;;;;;;;;13.30;99.90;;;;;;4994567;28;19922;-43
2023/09/16 06:28:12;;;;;;;;;;;13.40;99.90;;;;;;4994489;28;20393;-42
2023/09/16 06:30:37;;;;;;;;;;;13.40;99.90;;;;;;4994359;28;19921;-44
2023/09/16 06:33:04;;;;;;;;;;;13.50;99.90;;;;;;4994403;28;19933;-42
2023/09/16 06:35:29;;;;;;;;;;;13.50;99.90;;;;;;4994529;28;20045;-42
2023/09/16 06:37:55;;;;;;;;;;;13.60;99.90;;;;;;4994540;28;19944;-43
2023/09/16 06:40:20;;;;;;;;;;;13.60;99.90;;;;;;4977032;28;19945;-43
2023/09/16 06:42:46;;;;;;;;;;;13.70;99.90;;;;;;4994504;28;19922;-42
2023/09/16 06:45:12;;;;;;;;;;;13.80;99.90;;;;;;4994431;28;19984;-42
2023/09/16 06:47:38;;;;;;;;;;;13.90;99.90;;;;;;4994215;28;19988;-42
2023/09/16 06:50:04;;;;;;;;;;;14.00;99.90;;;;;;4994206;28;19969;-42
2023/09/16 06:52:29;;;;;;;;;;;14.00;99.90;;;;;;4994584;28;19932;-42
2023/09/16 06:54:55;;;;;;;;;;;14.10;99.90;;;;;;5009626;28;20286;-42
2023/09/16 06:57:21;;;;;;;;;;;14.10;99.90;;;;;;4994440;28;19922;-42
2023/09/16 06:59:47;;;;;;;;;;;14.20;99.90;;;;;;4994333;28;19921;-42
2023/09/16 07:02:13;;;;;;;;;;;14.30;99.90;;;;;;4994329;28;19945;-43
2023/09/16 07:04:40;;;;;;;;;;;14.30;99.90;;;;;;4994309;28;19922;-42
2023/09/16 07:07:06;;;;;;;;;;;14.50;99.90;;;;;;4994334;28;19928;-44
2023/09/16 07:09:32;;;;;;;;;;;14.60;99.90;;;;;;4994142;28;20386;-43
2023/09/16 07:11:57;;;;;;;;;;;14.70;99.90;;;;;;4997930;28;19929;-43
2023/09/16 07:14:23;;;;;;;;;;;14.80;99.90;;;;;;4997612;28;19944;-43
2023/09/16 07:16:48;;;;;;;;;;;14.80;99.90;;;;;;4998255;28;19921;-43
2023/09/16 07:19:15;;;;;;;;;;;14.90;99.90;;;;;;4998054;28;19921;-43
2023/09/16 07:21:40;;;;;;;;;;;14.90;99.90;;;;;;4980755;28;19926;-43
2023/09/16 07:24:06;;;;;;;;;;;15.00;99.90;;;;;;5013335;28;20012;-42
2023/09/16 07:26:31;;;;;;;;;;;15.00;99.90;;;;;;4997733;28;19922;-43
2023/09/16 07:28:57;;;;;;;;;;;15.20;99.90;;;;;;4997536;28;20302;-43
2023/09/16 07:31:23;;;;;;;;;;;15.30;99.90;;;;;;4997460;28;19972;-42
2023/09/16 07:33:49;;;;;;;;;;;15.30;99.90;;;;;;4997756;28;19922;-43
2023/09/16 07:36:14;;;;;;;;;;;15.40;99.90;;;;;;4997453;28;19979;-43
2023/09/16 07:38:40;;;;;;;;;;;15.40;99.90;;;;;;4997446;28;19933;-42
2023/09/16 07:41:05;;;;;;;;;;;15.40;99.90;;;;;;4997401;28;19922;-42
2023/09/16 07:43:31;;;;;;;;;;;15.40;99.90;;;;;;4997245;28;20283;-43
2023/09/16 07:45:58;;;;;;;;;;;15.40;99.90;;;;;;4997194;28;20009;-43
2023/09/16 07:48:24;;;;;;;;;;;15.50;99.90;;;;;;4997304;28;19937;-43
2023/09/16 07:50:49;;;;;;;;;;;15.50;99.90;;;;;;4997201;28;19925;-43
2023/09/16 07:53:15;;;;;;;;;;;15.50;99.90;;;;;;4997266;28;19922;-43
2023/09/16 07:55:41;;;;;;;;;;;15.50;99.90;;;;;;4997164;28;19921;-43
2023/09/16 07:58:06;;;;;;;;;;;15.50;99.90;;;;;;4996917;28;19976;-43
2023/09/16 08:00:32;;;;;;;;;;;15.50;99.90;;;;;;4996908;28;19929;-43
2023/09/16 08:02:58;;;;;;;;;;;15.60;99.90;;;;;;4997060;28;19921;-42
2023/09/16 08:05:23;;;;;;;;;;;15.60;99.90;;;;;;4996931;28;19921;-42
2023/09/16 08:07:49;;;;;;;;;;;15.70;99.90;;;;;;4996885;28;19926;-42
2023/09/16 08:10:14;;;;;;;;;;;15.70;99.90;;;;;;4996902;28;19976;-42
2023/09/16 08:12:40;;;;;;;;;;;15.80;99.90;;;;;;4996469;28;19926;-44
2023/09/16 08:15:06;;;;;;;;;;;15.80;99.90;;;;;;4996533;28;19922;-43
2023/09/16 08:17:32;;;;;;;;;;;15.80;99.90;;;;;;4996995;28;19968;-43
2023/09/16 08:19:58;;;;;;;;;;;15.90;99.90;;;;;;4996634;28;19922;-43
2023/09/16 08:22:23;;;;;;;;;;;15.90;99.90;;;;;;4996593;28;19928;-43
2023/09/16 08:24:50;;;;;;;;;;;15.90;99.90;;;;;;4996671;28;19925;-43
2023/09/16 08:27:16;;;;;;;;;;;16.00;99.90;;;;;;4996321;28;20505;-42
2023/09/16 08:29:41;;;;;;;;;;;16.10;99.90;;;;;;4996381;28;20012;-43
2023/09/16 08:32:07;;;;;;;;;;;16.10;99.90;;;;;;4997059;28;20374;-43
2023/09/16 08:34:32;;;;;;;;;;;16.20;99.90;;;;;;4996248;28;20294;-42
2023/09/16 08:36:58;;;;;;;;;;;16.20;99.90;;;;;;4979333;28;19922;-42
2023/09/16 08:39:24;;;;;;;;;;;16.20;99.90;;;;;;4996306;28;19921;-44
2023/09/16 08:41:55;;;;;;;;;;;16.30;99.90;;;;;;4996174;28;19929;-43
2023/09/16 08:44:22;;;;;;;;;;;16.30;99.90;;;;;;4996129;28;19932;-43
2023/09/16 08:46:52;;;;;;;;;;;16.40;99.90;;;;;;4996655;28;19951;-43
2023/09/16 08:49:21;;;;;;;;;;;16.40;99.90;;;;;;4996184;28;20020;-43
2023/09/16 08:51:47;;;;;;;;;;;16.50;99.90;;;;;;4996150;28;19922;-42
2023/09/16 08:54:15;;;;;;;;;;;16.50;99.90;;;;;;4978568;28;20334;-43
2023/09/16 08:56:42;;;;;;;;;;;16.60;99.90;;;;;;4995814;28;19925;-43
2023/09/16 08:59:08;;;;;;;;;;;16.70;99.90;;;;;;4962824;28;19925;-43
2023/09/16 09:01:33;;;;;;;;;;;16.80;99.90;;;;;;4995959;28;19928;-43
2023/09/16 09:04:00;;;;;;;;;;;16.80;99.90;;;;;;4995886;28;20501;-43
2023/09/16 09:06:26;;;;;;;;;;;16.90;99.90;;;;;;4978851;28;19948;-42
2023/09/16 09:08:52;;;;;;;;;;;17.00;99.90;;;;;;4995809;28;19921;-44
2023/09/16 09:11:18;;;;;;;;;;;17.00;99.90;;;;;;4995714;28;20049;-43
2023/09/16 09:13:48;;;;;;;;;;;17.00;99.90;;;;;;4995686;28;20347;-43
2023/09/16 09:16:18;;;;;;;;;;;17.10;99.90;;;;;;4995564;28;19921;-43
2023/09/16 09:18:46;;;;;;;;;;;17.20;99.90;;;;;;4995701;28;19925;-42
2023/09/16 09:21:12;;;;;;;;;;;17.20;99.90;;;;;;4995731;28;19968;-43
2023/09/16 09:23:37;;;;;;;;;;;17.20;99.90;;;;;;4995441;28;20334;-43
2023/09/16 09:26:04;;;;;;;;;;;17.30;99.90;;;;;;4995566;28;20337;-43
2023/09/16 09:28:31;;;;;;;;;;;17.40;99.90;;;;;;4995503;28;20439;-43
2023/09/16 09:30:57;;;;;;;;;;;17.40;99.90;;;;;;4995383;28;20417;-44
2023/09/16 09:33:25;;;;;;;;;;;17.50;99.90;;;;;;4994864;28;20363;-43
2023/09/16 09:36:07;;;;;;;;;;;17.60;99.90;;;;;;4995369;28;20020;-42
2023/09/16 09:38:33;;;;;;;;;;;17.60;99.90;;;;;;4995059;28;20020;-42
2023/09/16 09:41:00;;;;;;;;;;;17.70;99.90;;;;;;4977630;28;19960;-43
2023/09/16 09:43:28;;;;;;;;;;;17.80;99.90;;;;;;4995160;28;19968;-43
2023/09/16 09:45:54;;;;;;;;;;;17.90;99.90;;;;;;4995130;28;19929;-43
2023/09/16 09:48:20;;;;;;;;;;;18.00;99.90;;;;;;4994875;28;19929;-43
2023/09/16 09:50:45;;;;;;;;;;;18.10;99.90;;;;;;4995054;28;20021;-42
2023/09/16 09:53:11;;;;;;;;;;;18.10;99.90;;;;;;4994878;28;19922;-43
2023/09/16 09:55:37;;;;;;;;;;;18.20;99.90;;;;;;4995440;28;19926;-43
2023/09/16 09:58:03;;;;;;;;;;;18.30;99.90;;;;;;4994945;28;20322;-43
2023/09/16 10:00:28;;;;;;;;;;;18.40;99.90;;;;;;4994914;28;19921;-43
2023/09/16 10:02:54;;;;;;;;;;;18.50;99.90;;;;;;4994665;28;20023;-43
2023/09/16 10:05:21;;;;;;;;;;;18.60;99.90;;;;;;4994664;28;19932;-43
2023/09/16 10:07:47;;;;;;;;;;;18.70;99.90;;;;;;4994722;28;19921;-43
2023/09/16 10:10:22;;;;;;;;;;;18.70;99.90;;;;;;4994829;28;20008;-42
2023/09/16 10:12:50;;;;;;;;;;;18.80;99.90;;;;;;4994768;28;20414;-42
2023/09/16 10:15:16;;;;;;;;;;;18.90;99.90;;;;;;4994591;28;19929;-43
2023/09/16 10:17:43;;;;;;;;;;;19.00;99.90;;;;;;4994585;28;19921;-42
2023/09/16 10:20:11;;;;;;;;;;;19.10;99.90;;;;;;4994488;28;19949;-44
2023/09/16 10:22:38;;;;;;;;;;;19.20;99.90;;;;;;4994642;28;19928;-42
2023/09/16 10:25:04;;;;;;;;;;;19.40;99.90;;;;;;4994622;28;19922;-42
2023/09/16 10:27:31;;;;;;;;;;;19.50;99.90;;;;;;4994727;28;19926;-42
2023/09/16 10:29:58;;;;;;;;;;;19.60;99.90;;;;;;4994374;28;20374;-43
2023/09/16 10:32:23;;;;;;;;;;;19.70;99.90;;;;;;4994626;28;20349;-43
2023/09/16 10:34:49;;;;;;;;;;;19.90;99.90;;;;;;4994446;28;19973;-43
2023/09/16 10:37:16;;;;;;;;;;;20.00;99.90;;;;;;4994537;28;19922;-43
2023/09/16 10:39:43;;;;;;;;;;;20.10;99.90;;;;;;4994558;28;19922;-43
2023/09/16 10:42:09;;;;;;;;;;;20.30;99.90;;;;;;4994311;28;20402;-42
2023/09/16 10:44:35;;;;;;;;;;;20.40;99.90;;;;;;4977474;28;19921;-43
2023/09/16 10:47:04;;;;;;;;;;;20.50;99.90;;;;;;4998477;28;19922;-45
2023/09/16 10:49:29;;;;;;;;;;;20.60;99.90;;;;;;4981181;28;19922;-43
2023/09/16 10:51:59;;;;;;;;;;;20.70;99.90;;;;;;4998364;28;19922;-43
2023/09/16 10:54:29;;;;;;;;;;;20.80;99.90;;;;;;4998384;28;19922;-43
2023/09/16 10:56:56;;;;;;;;;;;20.90;99.90;;;;;;4998506;28;19928;-44
2023/09/16 10:59:25;;;;;;;;;;;21.10;99.90;;;;;;4998488;28;19929;-43
2023/09/16 11:02:00;;;;;;;;;;;21.20;99.90;;;;;;4997993;28;19925;-44
2023/09/16 11:04:25;;;;;;;;;;;21.30;99.90;;;;;;4998146;28;19961;-43
2023/09/16 11:06:51;;;;;;;;;;;21.40;99.90;;;;;;4998098;28;19921;-43
2023/09/16 11:09:18;;;;;;;;;;;21.50;99.90;;;;;;5013506;28;19922;-43
2023/09/16 11:11:44;;;;;;;;;;;21.60;99.90;;;;;;4997872;28;19928;-44
2023/09/16 11:14:10;;;;;;;;;;;21.70;99.90;;;;;;4980254;28;19921;-43
2023/09/16 11:16:47;;;;;;;;;;;21.80;99.90;;;;;;4997879;28;19922;-43
2023/09/16 11:19:13;;;;;;;;;;;21.90;99.90;;;;;;4998312;28;19964;-42
2023/09/16 11:21:39;;;;;;;;;;;21.90;99.90;;;;;;4997860;28;20333;-43
2023/09/16 11:24:05;;;;;;;;;;;22.00;99.90;;;;;;4980574;28;20017;-43
2023/09/16 11:26:35;;;;;;;;;;;22.10;99.90;;;;;;4997869;28;20326;-43
2023/09/16 11:29:00;;;;;;;;;;;22.20;99.90;;;;;;4997591;28;19921;-43
2023/09/16 11:31:26;;;;;;;;;;;22.20;99.90;;;;;;4997715;28;20319;-44
2023/09/16 11:33:58;;;;;;;;;;;22.30;99.90;;;;;;4997811;28;20282;-43
2023/09/16 11:36:24;;;;;;;;;;;22.40;99.90;;;;;;4997507;28;19977;-43
2023/09/16 11:38:52;;;;;;;;;;;22.50;99.90;;;;;;4997623;28;19928;-43
2023/09/16 11:41:18;;;;;;;;;;;22.60;99.90;;;;;;4997481;28;20363;-43
2023/09/16 11:43:44;;;;;;;;;;;22.60;99.90;;;;;;4997173;28;19922;-44
2023/09/16 11:46:11;;;;;;;;;;;22.70;99.90;;;;;;4997368;28;20020;-43
2023/09/16 11:48:53;;;;;;;;;;;22.80;99.90;;;;;;4997609;28;19985;-43
2023/09/16 11:51:19;;;;;;;;;;;22.90;99.90;;;;;;4997329;28;20279;-43
2023/09/16 11:53:45;;;;;;;;;;;22.90;99.90;;;;;;4997271;28;19968;-43
2023/09/16 11:56:11;;;;;;;;;;;23.00;99.90;;;;;;4979033;28;20391;-44
2023/09/16 11:58:37;;;;;;;;;;;23.00;99.90;;;;;;4997215;28;19991;-43
2023/09/16 12:01:03;;;;;;;;;;;22.90;99.90;;;;;;4997117;28;20334;-43
2023/09/16 12:03:29;;;;;;;;;;;22.80;99.90;;;;;;4997108;28;19975;-43
2023/09/16 12:05:55;;;;;;;;;;;22.70;99.90;;;;;;4979911;28;19921;-43
2023/09/16 12:08:21;;;;;;;;;;;22.60;99.90;;;;;;4996847;28;20387;-43
2023/09/16 12:10:47;;;;;;;;;;;22.40;99.90;;;;;;4996735;28;19990;-43
2023/09/16 12:13:24;;;;;;;;;;;22.30;99.90;;;;;;4996671;28;19921;-43
2023/09/16 12:15:50;;;;;;;;;;;22.20;99.90;;;;;;4996640;28;20428;-43
2023/09/16 12:18:15;;;;;;;;;;;22.20;99.90;;;;;;4997047;28;19922;-42
2023/09/16 12:20:41;;;;;;;;;;;22.10;99.90;;;;;;4979637;28;20290;-43
2023/09/16 12:23:07;;;;;;;;;;;22.10;99.90;;;;;;4996673;28;20024;-43
2023/09/16 12:25:38;;;;;;;;;;;22.00;99.90;;;;;;4996448;28;20008;-43
2023/09/16 12:28:04;;;;;;;;;;;22.00;99.90;;;;;;4996599;28;20456;-43
2023/09/16 12:30:29;;;;;;;;;;;22.00;99.90;;;;;;4996537;28;19926;-43
2023/09/16 12:32:55;;;;;;;;;;;21.90;99.90;;;;;;4996463;28;19922;-43
2023/09/16 12:35:20;;;;;;;;;;;21.80;99.90;;;;;;4996556;28;20275;-43
2023/09/16 12:37:47;;;;;;;;;;;21.80;99.90;;;;;;4996221;28;19921;-43
2023/09/16 12:40:13;;;;;;;;;;;21.70;99.90;;;;;;4996376;28;20374;-43
2023/09/16 12:42:39;;;;;;;;;;;21.70;99.90;;;;;;4996716;28;19928;-43
2023/09/16 12:45:04;;;;;;;;;;;21.70;99.90;;;;;;4996279;28;19921;-43
2023/09/16 12:47:30;;;;;;;;;;;21.70;99.90;;;;;;4996524;28;19925;-43
2023/09/16 12:49:56;;;;;;;;;;;21.70;99.90;;;;;;4996046;28;20414;-43
2023/09/16 12:52:22;;;;;;;;;;;21.70;99.90;;;;;;4996072;28;19921;-44
2023/09/16 12:54:48;;;;;;;;;;;21.70;99.90;;;;;;4995806;28;19929;-43
2023/09/16 12:57:14;;;;;;;;;;;21.80;99.90;;;;;;4996163;28;19957;-43
2023/09/16 12:59:44;;;;;;;;;;;21.80;99.90;;;;;;4996186;28;19922;-44
2023/09/16 13:02:10;;;;;;;;;;;21.90;99.90;;;;;;4978732;28;19978;-44
2023/09/16 13:04:35;;;;;;;;;;;21.90;99.90;;;;;;4996114;28;19926;-43
2023/09/16 13:07:01;;;;;;;;;;;21.90;99.90;;;;;;4995660;28;20389;-44
2023/09/16 13:09:30;;;;;;;;;;;21.90;99.90;;;;;;4995680;28;19922;-43
2023/09/16 13:11:59;;;;;;;;;;;21.90;99.90;;;;;;4996162;28;20430;-43
2023/09/16 13:14:26;;;;;;;;;;;21.90;99.90;;;;;;5010842;28;19922;-43
2023/09/16 13:16:51;;;;;;;;;;;22.00;99.90;;;;;;4995643;28;20298;-43
2023/09/16 13:19:20;;;;;;;;;;;22.10;99.90;;;;;;4995561;28;19921;-43
2023/09/16 13:21:47;;;;;;;;;;;22.20;99.90;;;;;;4995485;28;19922;-44
2023/09/16 13:24:12;;;;;;;;;;;22.20;99.90;;;;;;4995430;28;20367;-43
2023/09/16 13:26:48;;;;;;;;;;;22.20;99.90;;;;;;4995763;28;20026;-43
2023/09/16 13:29:14;;;;;;;;;;;22.30;99.90;;;;;;4995383;28;19921;-43
2023/09/16 13:31:40;;;;;;;;;;;22.30;99.90;;;;;;4978016;28;19928;-43
2023/09/16 13:34:05;;;;;;;;;;;22.30;99.90;;;;;;4995363;28;20371;-43
2023/09/16 13:36:32;;;;;;;;;;;22.30;99.90;;;;;;4961725;28;19922;-43
2023/09/16 13:38:59;;;;;;;;;;;22.30;99.90;;;;;;4978043;28;19968;-43
2023/09/16 13:41:24;;;;;;;;;;;22.30;99.90;;;;;;4995167;28;19921;-43
2023/09/16 13:43:50;;;;;;;;;;;22.30;99.90;;;;;;4995113;28;20298;-43
2023/09/16 13:46:17;;;;;;;;;;;22.30;99.90;;;;;;4995071;28;19921;-43
2023/09/16 13:48:44;;;;;;;;;;;22.30;99.90;;;;;;4995146;28;19922;-43
2023/09/16 13:51:10;;;;;;;;;;;22.30;99.90;;;;;;4977655;28;20416;-44
2023/09/16 13:53:36;;;;;;;;;;;22.40;99.90;;;;;;4995046;28;20016;-43
2023/09/16 13:56:02;;;;;;;;;;;22.40;99.90;;;;;;4994899;28;20375;-43
2023/09/16 13:58:28;;;;;;;;;;;22.30;99.90;;;;;;4994944;28;19929;-43
2023/09/16 14:00:54;;;;;;;;;;;22.30;99.90;;;;;;4977880;28;19925;-43
2023/09/16 14:03:19;;;;;;;;;;;22.30;99.90;;;;;;4994989;28;19922;-43
2023/09/16 14:05:45;;;;;;;;;;;22.20;99.90;;;;;;4994821;28;20034;-43
2023/09/16 14:08:11;;;;;;;;;;;22.20;99.90;;;;;;4994807;28;19921;-43
2023/09/16 14:10:36;;;;;;;;;;;22.20;99.90;;;;;;4994864;28;19929;-43